Time;durP1;ratioP1;P1;durP2;ratioP2;P2;SDS_P1;SDS_P2;PMS_P1;PMS_P2;Temp;Humidity;BMP_temperature;BMP_pressure;BME280_temperature;BME280_humidity;BME280_pressure;Samples;Min_cycle;Max_cycle;Signal;HPM_P1;HPM_P2
2022/11/24 00:01:18;;;;;;;20.08;4.03;;;;;;;-143.48;87.87;78228.31;5054482;28;20028;-30
2022/11/24 00:03:46;;;;;;;18.08;3.00;;;;;;;-143.48;87.91;78226.34;5053875;28;20025;-30
2022/11/24 00:06:13;;;;;;;17.55;3.63;;;;;;;-143.48;87.73;78228.31;5053938;28;20143;-30
2022/11/24 00:08:43;;;;;;;17.50;3.55;;;;;;;-143.48;87.23;78230.31;5054382;28;20053;-29
2022/11/24 00:11:14;;;;;;;27.48;3.60;;;;;;;-143.48;87.48;78232.28;5054090;28;20024;-30
2022/11/24 00:13:40;;;;;;;20.75;3.38;;;;;;;-143.48;87.21;78250.16;5053697;28;20029;-30
2022/11/24 00:16:19;;;;;;;23.48;3.45;;;;;;;-143.48;87.01;78262.03;5053699;28;20434;-30
2022/11/24 00:18:47;;;;;;;26.08;3.33;;;;;;;-143.48;87.35;78269.97;5053609;28;20029;-30
2022/11/24 00:21:13;;;;;;;20.67;3.47;;;;;;;-143.48;87.18;78269.97;5053342;28;20052;-30
2022/11/24 00:23:40;;;;;;;23.25;3.10;;;;;;;-143.48;87.16;78260.06;5053410;28;20049;-30
2022/11/24 00:26:08;;;;;;;14.35;2.90;;;;;;;-143.48;87.02;78269.97;5053454;28;20534;-30
2022/11/24 00:28:34;;;;;;;16.38;3.13;;;;;;;-143.48;87.33;78271.97;5036337;28;20096;-30
2022/11/24 00:31:00;;;;;;;19.27;3.75;;;;;;;-143.48;87.88;78283.84;5053572;28;20107;-30
2022/11/24 00:33:26;;;;;;;17.58;3.38;;;;;;;-143.48;87.47;78277.91;5053500;28;20051;-30
2022/11/24 00:35:58;;;;;;;21.60;3.65;;;;;;;-143.48;87.94;78277.91;5053342;28;20108;-30
2022/11/24 00:38:24;;;;;;;19.20;3.22;;;;;;;-143.48;88.40;78271.97;5053667;28;20060;-30
2022/11/24 00:40:50;;;;;;;23.70;3.40;;;;;;;-143.48;88.20;78279.88;5053590;28;20445;-30
2022/11/24 00:43:16;;;;;;;18.52;3.33;;;;;;;-143.48;88.20;78281.88;5053524;28;20033;-30
2022/11/24 00:45:41;;;;;;;17.27;3.28;;;;;;;-143.48;88.07;78271.97;5053246;28;20029;-30
2022/11/24 00:48:07;;;;;;;20.95;3.40;;;;;;;-143.48;88.01;78281.88;5051582;28;20051;-30
2022/11/24 00:50:32;;;;;;;17.33;3.50;;;;;;;-143.48;88.29;78283.84;5051081;28;20066;-30
2022/11/24 00:52:58;;;;;;;27.10;3.35;;;;;;;-143.48;88.18;78273.94;5051085;28;20029;-30
2022/11/24 00:55:23;;;;;;;20.42;3.25;;;;;;;-143.48;87.51;78281.88;5050979;28;20463;-30
2022/11/24 00:57:48;;;;;;;17.20;3.53;;;;;;;-143.48;87.34;78275.94;5050926;28;20031;-30
2022/11/24 01:00:14;;;;;;;16.83;3.08;;;;;;;-143.48;87.30;78271.97;5050950;28;20119;-30
2022/11/24 01:02:40;;;;;;;21.67;3.20;;;;;;;-143.48;87.24;78283.84;5051626;28;20032;-30
2022/11/24 01:05:05;;;;;;;22.23;3.30;;;;;;;-143.48;87.69;78279.88;5055914;28;20384;-30
2022/11/24 01:07:31;;;;;;;22.00;3.03;;;;;;;-143.48;88.05;78297.75;5059962;28;20028;-31
2022/11/24 01:09:56;;;;;;;18.95;3.10;;;;;;;-143.48;88.35;78307.66;5059854;28;20021;-30
2022/11/24 01:12:21;;;;;;;16.38;3.28;;;;;;;-143.48;88.21;78319.56;5059675;28;20021;-30
2022/11/24 01:14:47;;;;;;;22.98;3.20;;;;;;;-143.48;88.54;78319.56;5059889;28;20029;-30
2022/11/24 01:17:12;;;;;;;16.65;3.20;;;;;;;-143.48;88.40;78321.53;5059932;28;20024;-30
2022/11/24 01:19:37;;;;;;;17.83;3.55;;;;;;;-143.48;88.40;78311.63;5059913;28;20049;-30
2022/11/24 01:22:03;;;;;;;17.65;3.30;;;;;;;-143.48;88.12;78315.59;5059404;28;20502;-30
2022/11/24 01:24:28;;;;;;;25.70;3.97;;;;;;;-143.48;87.98;78311.63;5059898;28;20032;-30
2022/11/24 01:26:53;;;;;;;16.15;3.33;;;;;;;-143.48;88.27;78311.63;5059842;28;20056;-30
2022/11/24 01:29:19;;;;;;;21.48;3.42;;;;;;;-143.48;87.70;78307.66;5059764;28;20032;-29
2022/11/24 01:31:44;;;;;;;23.85;3.42;;;;;;;-143.48;87.39;78313.59;5059721;28;20025;-30
2022/11/24 01:34:09;;;;;;;18.10;3.60;;;;;;;-143.48;87.82;78321.53;5059687;28;20044;-30
2022/11/24 01:36:35;;;;;;;24.45;3.50;;;;;;;-143.48;87.34;78325.50;5059760;28;20033;-30
2022/11/24 01:39:00;;;;;;;17.60;3.28;;;;;;;-143.48;86.90;78325.50;5059490;28;20024;-30
2022/11/24 01:41:26;;;;;;;14.05;3.30;;;;;;;-143.48;87.41;78335.41;5059383;28;20108;-30
2022/11/24 01:43:53;;;;;;;21.73;3.45;;;;;;;-143.48;87.32;78335.41;5059657;28;20017;-30
2022/11/24 01:46:29;;;;;;;20.88;3.97;;;;;;;-143.48;87.46;78347.31;5059687;28;20033;-30
2022/11/24 01:49:04;;;;;;;25.10;3.15;;;;;;;-143.48;87.06;78347.31;5059455;28;20055;-30
2022/11/24 01:51:33;;;;;;;16.95;3.30;;;;;;;-143.48;86.23;78335.41;5059710;28;20083;-30
2022/11/24 01:54:06;;;;;;;23.75;3.13;;;;;;;-143.48;86.14;78327.50;5059209;28;20069;-30
2022/11/24 01:56:35;;;;;;;17.98;3.53;;;;;;;-143.48;86.26;78341.38;5059901;28;20029;-29
2022/11/24 01:59:04;;;;;;;17.80;2.97;;;;;;;-143.48;86.52;78345.34;5059647;28;20029;-30
2022/11/24 02:01:30;;;;;;;21.02;3.30;;;;;;;-143.48;86.30;78327.50;5059764;28;20028;-30
2022/11/24 02:03:58;;;;;;;18.02;3.13;;;;;;;-143.48;86.34;78339.38;5059476;28;20472;-30
2022/11/24 02:06:29;;;;;;;13.93;2.67;;;;;;;-143.48;86.24;78345.34;5059219;28;20535;-30
2022/11/24 02:09:07;;;;;;;20.55;3.08;;;;;;;-143.48;86.62;78337.41;5059777;28;20063;-30
2022/11/24 02:11:36;;;;;;;16.95;3.20;;;;;;;-143.48;85.84;78349.31;5059438;28;20047;-29
2022/11/24 02:14:04;;;;;;;16.90;3.03;;;;;;;-143.48;85.90;78345.34;5059120;28;20337;-29
2022/11/24 02:16:31;;;;;;;22.33;3.53;;;;;;;-143.48;85.83;78345.34;5056912;28;20033;-30
2022/11/24 02:18:57;;;;;;;20.38;3.33;;;;;;;-143.48;85.51;78351.28;5038649;28;20060;-30
2022/11/24 02:21:22;;;;;;;12.90;2.65;;;;;;;-143.48;85.21;78351.28;5055794;28;20472;-30
2022/11/24 02:24:19;;;;;;;11.80;2.70;;;;;;;-143.48;85.41;78343.34;5056488;28;20036;-30
2022/11/24 02:26:47;;;;;;;15.30;2.95;;;;;;;-143.48;85.40;78359.22;5055773;28;20060;-29
2022/11/24 02:29:13;;;;;;;15.60;2.63;;;;;;;-143.48;85.25;78349.31;5056393;28;20029;-29
2022/11/24 02:31:44;;;;;;;15.77;2.60;;;;;;;-143.48;85.25;78351.28;5056027;28;20480;-31
2022/11/24 02:34:09;;;;;;;18.98;3.10;;;;;;;-143.48;84.92;78341.38;5055705;28;20071;-30
2022/11/24 02:36:35;;;;;;;16.35;2.80;;;;;;;-143.48;84.76;78339.38;5056178;28;20033;-30
2022/11/24 02:39:00;;;;;;;21.58;3.30;;;;;;;-143.48;84.18;78345.34;5055654;28;20099;-30
2022/11/24 02:41:27;;;;;;;19.90;3.25;;;;;;;-143.48;84.63;78339.38;5055453;28;20112;-30
2022/11/24 02:44:00;;;;;;;20.80;3.05;;;;;;;-143.48;84.62;78339.38;5055863;28;20056;-29
2022/11/24 02:46:25;;;;;;;21.33;3.03;;;;;;;-143.48;84.41;78341.38;5055960;28;20040;-29
2022/11/24 02:48:51;;;;;;;12.20;2.42;;;;;;;-143.48;83.58;78337.41;5055329;28;20107;-29
2022/11/24 02:51:17;;;;;;;12.38;2.70;;;;;;;-143.48;83.84;78353.28;5055379;28;20021;-29
2022/11/24 02:53:42;;;;;;;20.42;3.30;;;;;;;-143.48;83.84;78345.34;5055355;28;20380;-30
2022/11/24 02:56:07;;;;;;;12.95;2.55;;;;;;;-143.48;83.64;78345.34;5055484;28;20104;-29
2022/11/24 02:58:33;;;;;;;15.68;2.65;;;;;;;-143.48;83.75;78347.31;5055734;28;20056;-30
2022/11/24 03:00:58;;;;;;;14.95;2.85;;;;;;;-143.48;83.71;78349.31;5055374;28;20028;-30
2022/11/24 03:03:25;;;;;;;21.05;2.90;;;;;;;-143.48;83.90;78353.28;5055507;28;20039;-30
2022/11/24 03:05:50;;;;;;;16.15;2.92;;;;;;;-143.48;83.73;78353.28;5037539;28;20025;-30
2022/11/24 03:08:16;;;;;;;17.40;2.70;;;;;;;-143.48;83.63;78351.28;5055412;28;20032;-30
2022/11/24 03:10:41;;;;;;;17.17;2.50;;;;;;;-143.48;83.73;78353.28;5055648;28;20441;-30
2022/11/24 03:13:07;;;;;;;16.48;3.03;;;;;;;-143.48;83.72;78353.28;5054995;28;20029;-29
2022/11/24 03:15:33;;;;;;;18.08;2.63;;;;;;;-143.48;83.22;78349.31;5055094;28;20357;-30
2022/11/24 03:17:58;;;;;;;17.00;2.83;;;;;;;-143.48;83.44;78361.19;5054903;28;20025;-30
2022/11/24 03:20:24;;;;;;;14.77;4.47;;;;;;;-143.48;82.60;78349.31;5054696;28;20453;-29
2022/11/24 03:22:50;;;;;;;14.07;2.60;;;;;;;-143.48;83.15;78361.19;5055046;28;20029;-30
2022/11/24 03:25:15;;;;;;;12.32;2.92;;;;;;;-143.48;83.06;78357.22;5054846;28;20387;-30
2022/11/24 03:27:40;;;;;;;13.73;3.17;;;;;;;-143.48;83.35;78359.22;5054857;28;20025;-30
2022/11/24 03:30:07;;;;;;;12.93;2.53;;;;;;;-143.48;83.51;78361.19;5054995;28;20033;-29
2022/11/24 03:32:32;;;;;;;10.02;2.15;;;;;;;-143.48;83.63;78365.16;5055024;28;20021;-30
2022/11/24 03:34:58;;;;;;;13.85;2.40;;;;;;;-143.48;83.76;78377.06;5054913;28;20032;-30
2022/11/24 03:37:23;;;;;;;13.68;2.45;;;;;;;-143.48;83.32;78375.09;5054886;28;20487;-30
2022/11/24 03:39:48;;;;;;;14.68;2.25;;;;;;;-143.48;83.24;78375.09;5054736;28;20033;-29
2022/11/24 03:42:14;;;;;;;12.50;2.53;;;;;;;-143.48;82.72;78369.13;5054649;28;20437;-30
2022/11/24 03:44:39;;;;;;;15.20;2.17;;;;;;;-143.48;83.09;78373.09;5054645;28;20064;-30
2022/11/24 03:47:05;;;;;;;11.60;2.20;;;;;;;-143.48;83.25;78381.03;5054843;28;20021;-30
2022/11/24 03:49:30;;;;;;;8.40;1.88;;;;;;;-143.48;82.59;78377.06;5054281;28;20095;-30
2022/11/24 03:51:56;;;;;;;14.23;2.33;;;;;;;-143.48;81.97;78379.06;5054490;28;20021;-30
2022/11/24 03:54:21;;;;;;;13.10;2.05;;;;;;;-143.48;81.66;78383.00;5054394;28;20104;-29
2022/11/24 03:56:46;;;;;;;10.52;2.00;;;;;;;-143.48;82.13;78386.97;5054180;28;20132;-30
2022/11/24 03:59:12;;;;;;;11.75;1.85;;;;;;;-143.48;81.79;78390.94;5054141;28;20092;-30
2022/11/24 04:01:37;;;;;;;10.25;2.10;;;;;;;-143.48;81.81;78400.88;5054259;28;20021;-29
2022/11/24 04:04:03;;;;;;;5.90;1.48;;;;;;;-143.48;81.57;78400.88;5053994;28;20064;-30
2022/11/24 04:06:28;;;;;;;12.63;2.03;;;;;;;-143.48;81.79;78396.91;5054431;28;20380;-30
2022/11/24 04:08:53;;;;;;;9.75;1.90;;;;;;;-143.48;81.52;78398.88;5053960;28;20458;-30
2022/11/24 04:14:03;;;;;;;11.05;2.20;;;;;;;-143.48;81.73;78398.88;5053801;28;20031;-30
2022/11/24 04:16:28;;;;;;;13.43;2.42;;;;;;;-143.48;81.79;78400.88;5053649;28;20111;-29
2022/11/24 04:18:53;;;;;;;11.77;2.60;;;;;;;-143.48;81.79;78392.94;5053798;28;20029;-29
2022/11/24 04:21:19;;;;;;;11.23;2.20;;;;;;;-143.48;81.83;78406.81;5053504;28;20055;-29
2022/11/24 04:23:44;;;;;;;9.27;2.10;;;;;;;-143.48;81.97;78404.84;5053945;28;20037;-30
2022/11/24 04:26:10;;;;;;;13.30;2.08;;;;;;;-143.48;82.79;78404.84;5053933;28;20025;-30
2022/11/24 04:28:35;;;;;;;11.70;2.72;;;;;;;-143.48;82.69;78404.84;5053583;28;20029;-30
2022/11/24 04:31:02;;;;;;;15.18;2.70;;;;;;;-143.48;82.73;78404.84;5035726;28;20020;-30
2022/11/24 04:33:27;;;;;;;19.48;2.55;;;;;;;-143.48;82.78;78408.81;5053526;28;20495;-30
2022/11/24 04:35:53;;;;;;;18.60;2.38;;;;;;;-143.48;83.58;78412.75;5053786;28;20060;-30
2022/11/24 04:38:18;;;;;;;19.15;3.05;;;;;;;-143.48;83.53;78408.81;5053892;28;20483;-30
2022/11/24 04:40:43;;;;;;;12.90;2.88;;;;;;;-143.48;83.18;78404.84;5052852;28;20545;-31
2022/11/24 04:43:09;;;;;;;17.80;3.50;;;;;;;-143.48;83.74;78412.75;5053664;28;20032;-30
2022/11/24 04:45:34;;;;;;;18.58;3.40;;;;;;;-143.48;83.70;78410.78;5053577;28;20052;-30
2022/11/24 04:48:00;;;;;;;14.23;2.88;;;;;;;-143.48;84.32;78426.66;5053278;28;20386;-30
2022/11/24 04:50:25;;;;;;;19.27;3.45;;;;;;;-143.48;84.58;78422.69;5053519;28;20093;-30
2022/11/24 04:52:51;;;;;;;18.55;3.33;;;;;;;-143.48;84.39;78416.72;5053293;28;20032;-30
2022/11/24 04:55:16;;;;;;;24.40;3.65;;;;;;;-143.48;84.26;78428.63;5053454;28;20025;-30
2022/11/24 04:57:42;;;;;;;15.35;3.50;;;;;;;-143.48;84.98;78424.66;5053476;28;20021;-30
2022/11/24 05:00:09;;;;;;;14.77;3.35;;;;;;;-143.48;85.05;78426.66;5053094;28;20025;-30
2022/11/24 05:02:34;;;;;;;15.55;3.47;;;;;;;-143.48;84.96;78436.56;5053595;28;20032;-30
2022/11/24 05:05:00;;;;;;;20.75;3.97;;;;;;;-143.48;85.03;78438.53;5053160;28;20025;-30
2022/11/24 05:07:25;;;;;;;14.98;3.83;;;;;;;-143.48;85.05;78444.50;5053136;28;20024;-30
2022/11/24 05:12:34;;;;;;;12.85;3.63;;;;;;;-143.48;85.36;78446.47;5053366;28;20120;-30
2022/11/24 05:15:02;;;;;;;14.93;3.80;;;;;;;-143.48;84.96;78446.47;5052940;28;20052;-30
2022/11/24 05:17:29;;;;;;;14.00;3.55;;;;;;;-143.48;85.36;78462.34;5052864;28;20029;-30
2022/11/24 05:19:55;;;;;;;11.18;3.20;;;;;;;-143.48;85.36;78474.25;5053108;28;20056;-30
2022/11/24 05:22:20;;;;;;;9.98;3.25;;;;;;;-143.48;85.12;78476.22;5053423;28;20033;-30
2022/11/24 05:24:45;;;;;;;10.27;3.35;;;;;;;-143.48;84.86;78472.25;5053014;28;20068;-30
2022/11/24 05:27:10;;;;;;;13.38;2.95;;;;;;;-143.48;84.62;78486.16;5053229;28;20037;-30
2022/11/24 05:29:36;;;;;;;9.30;2.60;;;;;;;-143.48;83.98;78504.00;5052875;28;20025;-30
2022/11/24 05:32:01;;;;;;;6.63;2.03;;;;;;;-143.48;81.79;78517.88;5052862;28;20424;-30
2022/11/24 05:34:27;;;;;;;5.45;1.83;;;;;;;-143.48;81.24;78527.78;5053050;28;20031;-30
2022/11/24 05:36:52;;;;;;;8.05;1.70;;;;;;;-143.48;80.82;78533.75;5052998;28;20368;-30
2022/11/24 05:39:19;;;;;;;8.30;1.73;;;;;;;-143.48;81.46;78551.59;5034931;28;20025;-29
2022/11/24 05:41:44;;;;;;;3.75;1.63;;;;;;;-143.48;81.58;78559.53;5053264;28;20025;-30
2022/11/24 05:44:10;;;;;;;5.60;1.40;;;;;;;-143.48;81.84;78577.38;5052997;28;20040;-29
2022/11/24 05:46:35;;;;;;;5.47;1.40;;;;;;;-143.48;82.49;78579.34;5052946;28;20025;-30
2022/11/24 05:49:00;;;;;;;8.63;1.60;;;;;;;-143.48;82.76;78585.31;5051650;28;20395;-30
2022/11/24 05:51:26;;;;;;;4.95;1.52;;;;;;;-143.48;83.06;78581.34;5052816;28;20021;-30
2022/11/24 05:53:51;;;;;;;6.45;1.80;;;;;;;-143.48;84.06;78589.28;5056731;28;20119;-30
2022/11/24 05:56:16;;;;;;;8.93;1.85;;;;;;;-143.48;84.67;78591.25;5056342;28;20456;-30
2022/11/24 05:58:42;;;;;;;9.75;2.00;;;;;;;-143.48;84.79;78591.25;5056432;28;20116;-30
2022/11/24 06:01:07;;;;;;;6.88;2.05;;;;;;;-143.48;84.60;78597.22;5054361;28;20075;-29
2022/11/24 06:03:32;;;;;;;5.93;1.55;;;;;;;-143.48;85.22;78597.22;5054222;28;20029;-29
2022/11/24 06:05:58;;;;;;;6.90;1.40;;;;;;;-143.48;85.38;78603.16;5054270;28;20025;-30
2022/11/24 06:08:23;;;;;;;2.90;1.25;;;;;;;-143.48;84.88;78599.19;5054364;28;20075;-30
2022/11/24 06:10:48;;;;;;;5.13;1.10;;;;;;;-143.48;85.15;78615.06;5054259;28;20051;-30
2022/11/24 06:13:14;;;;;;;3.95;1.02;;;;;;;-143.48;84.55;78615.06;5054036;28;20025;-30
2022/11/24 06:15:39;;;;;;;5.80;1.33;;;;;;;-143.48;83.95;78626.97;5055348;28;20021;-30
2022/11/24 06:18:05;;;;;;;4.13;1.13;;;;;;;-143.48;84.11;78628.94;5055924;28;20029;-30
2022/11/24 06:20:30;;;;;;;5.15;1.35;;;;;;;-143.48;84.47;78648.78;5055701;28;20105;-30
2022/11/24 06:22:59;;;;;;;4.78;1.08;;;;;;;-143.48;84.45;78648.78;5055804;28;20044;-30
2022/11/24 06:25:25;;;;;;;5.95;1.15;;;;;;;-143.48;84.67;78642.81;5055934;28;20106;-30
2022/11/24 06:27:50;;;;;;;7.75;1.77;;;;;;;-143.48;84.98;78650.75;5056068;28;20132;-30
2022/11/24 06:30:15;;;;;;;5.00;1.20;;;;;;;-143.48;85.18;78664.66;5056101;28;20029;-30
2022/11/24 06:32:43;;;;;;;3.22;1.02;;;;;;;-143.48;85.23;78670.59;5055997;28;20024;-29
2022/11/24 06:35:10;;;;;;;2.70;1.00;;;;;;;-143.48;84.94;78670.59;5055946;28;20053;-32
2022/11/24 06:37:36;;;;;;;3.78;1.08;;;;;;;-143.48;85.59;78678.53;5037772;28;20029;-29
2022/11/24 06:40:01;;;;;;;3.35;1.10;;;;;;;-143.48;86.36;78680.50;5055841;28;20083;-30
2022/11/24 06:42:26;;;;;;;6.22;1.70;;;;;;;-143.48;86.84;78690.44;5055528;28;20017;-30
2022/11/24 06:44:52;;;;;;;8.43;1.50;;;;;;;-143.48;87.23;78700.34;5055800;28;20025;-30
2022/11/24 06:47:17;;;;;;;5.78;1.70;;;;;;;-143.48;87.93;78706.28;5055726;28;20165;-30
2022/11/24 06:49:42;;;;;;;6.97;1.98;;;;;;;-143.48;88.20;78706.28;5055348;28;20491;-31
2022/11/24 06:52:08;;;;;;;5.63;2.05;;;;;;;-143.48;88.31;78708.28;5055406;28;20103;-29
2022/11/24 06:54:33;;;;;;;7.28;2.05;;;;;;;-143.48;88.88;78718.19;5055336;28;20021;-28
2022/11/24 06:56:58;;;;;;;8.07;2.60;;;;;;;-143.48;89.27;78722.16;5055205;28;20036;-28
2022/11/24 06:59:25;;;;;;;8.55;2.47;;;;;;;-143.48;89.60;78724.16;5055412;28;20024;-29
2022/11/24 07:01:51;;;;;;;9.38;3.05;;;;;;;-143.48;89.70;78718.19;5036694;28;20048;-29
2022/11/24 07:04:17;;;;;;;7.53;2.72;;;;;;;-143.48;89.95;78716.22;5054165;28;20065;-29
2022/11/24 07:06:42;;;;;;;8.45;2.85;;;;;;;-143.48;90.15;78724.16;5054621;28;20104;-30
2022/11/24 07:09:09;;;;;;;9.35;2.88;;;;;;;-143.48;90.14;78730.09;5054858;28;20048;-30
2022/11/24 07:11:35;;;;;;;6.90;3.10;;;;;;;-143.48;90.24;78722.16;5054395;28;20489;-30
2022/11/24 07:14:01;;;;;;;9.18;3.10;;;;;;;-143.48;89.99;78722.16;5054274;28;20110;-30
2022/11/24 07:16:27;;;;;;;9.82;3.40;;;;;;;-143.48;90.20;78730.09;5054939;28;20047;-30
2022/11/24 07:18:53;;;;;;;9.85;3.88;;;;;;;-143.48;90.57;78734.06;5054858;28;20032;-29
2022/11/24 07:21:20;;;;;;;8.55;3.88;;;;;;;-143.48;90.88;78728.13;5055093;28;20514;-30
2022/11/24 07:23:54;;;;;;;8.27;3.40;;;;;;;-143.48;90.52;78732.09;5054515;28;20495;-30
2022/11/24 07:26:21;;;;;;;7.63;4.03;;;;;;;-143.48;90.76;78734.06;5053364;28;20029;-30
2022/11/24 07:28:47;;;;;;;13.07;4.72;;;;;;;-143.48;90.40;78736.03;5054391;28;20071;-30
2022/11/24 07:31:14;;;;;;;8.30;4.10;;;;;;;-143.48;90.44;78740.00;5036796;28;20021;-30
2022/11/24 07:33:40;;;;;;;9.98;4.45;;;;;;;-143.48;89.80;78738.03;5054460;28;20028;-29
2022/11/24 07:36:07;;;;;;;10.38;4.13;;;;;;;-143.48;90.33;78740.00;5054850;28;20460;-29
2022/11/24 07:38:33;;;;;;;10.20;4.45;;;;;;;-143.48;89.91;78730.09;5054391;28;20067;-29
2022/11/24 07:41:04;;;;;;;10.25;4.38;;;;;;;-143.48;89.80;78734.06;5054406;28;20106;-29
2022/11/24 07:43:34;;;;;;;10.23;4.30;;;;;;;-143.48;89.18;78734.06;5053557;28;20140;-29
2022/11/24 07:46:00;;;;;;;10.27;4.72;;;;;;;-143.48;88.89;78736.03;5054958;28;20028;-29
2022/11/24 07:48:25;;;;;;;8.68;4.25;;;;;;;-143.48;89.09;78767.78;5054340;28;20032;-29
2022/11/24 07:50:50;;;;;;;11.27;4.45;;;;;;;-143.48;89.05;78749.94;5054491;28;20025;-30
2022/11/24 07:53:16;;;;;;;10.68;4.90;;;;;;;-143.48;88.88;78747.94;5054473;28;20077;-30
2022/11/24 07:55:42;;;;;;;11.57;4.13;;;;;;;-143.48;88.57;78743.97;5054168;28;20024;-29
2022/11/24 07:58:07;;;;;;;12.85;4.03;;;;;;;-143.48;88.66;78751.91;5036251;28;20439;-29
2022/11/24 08:00:33;;;;;;;8.90;4.15;;;;;;;-143.48;88.72;78749.94;5054345;28;20052;-29
2022/11/24 08:02:58;;;;;;;11.82;4.40;;;;;;;-143.48;88.90;78767.78;5054096;28;20446;-29
2022/11/24 08:05:23;;;;;;;12.43;4.40;;;;;;;-143.48;89.09;78738.03;5054014;28;20087;-29
2022/11/24 08:07:48;;;;;;;12.95;4.35;;;;;;;-143.48;87.96;78740.00;5054238;28;20457;-29
2022/11/24 08:10:14;;;;;;;10.75;4.15;;;;;;;-143.48;88.06;78738.03;5053624;28;20017;-29
2022/11/24 08:12:40;;;;;;;12.43;4.40;;;;;;;-143.48;87.91;78753.91;5054107;28;20154;-29
2022/11/24 08:15:06;;;;;;;12.02;4.93;;;;;;;-143.48;88.40;78726.13;5053169;28;20021;-29
2022/11/24 08:17:31;;;;;;;13.77;4.40;;;;;;;-143.48;87.78;78734.06;5053989;28;20025;-30
2022/11/24 08:19:57;;;;;;;7.07;4.07;;;;;;;-143.48;88.35;78742.00;5054110;28;20527;-30
2022/11/24 08:22:22;;;;;;;15.05;4.43;;;;;;;-143.48;89.08;78751.91;5053939;28;20032;-30
2022/11/24 08:24:48;;;;;;;11.18;4.30;;;;;;;-143.48;88.91;78749.94;5054223;28;20027;-30
2022/11/24 08:27:15;;;;;;;9.98;3.95;;;;;;;-143.48;88.89;78751.91;5053877;28;20029;-30
2022/11/24 08:29:41;;;;;;;7.32;3.70;;;;;;;-143.48;89.54;78771.75;5053480;28;20031;-30
2022/11/24 08:32:06;;;;;;;10.80;4.50;;;;;;;-143.48;89.49;78771.75;5053152;28;20021;-30
2022/11/24 08:34:32;;;;;;;9.52;4.43;;;;;;;-143.48;89.52;78771.75;5053468;28;20031;-30
2022/11/24 08:36:57;;;;;;;11.85;4.43;;;;;;;-143.48;89.23;78777.69;5053994;28;20028;-30
2022/11/24 08:39:22;;;;;;;11.68;4.05;;;;;;;-143.48;90.11;78787.63;5035621;28;20021;-29
2022/11/24 08:41:48;;;;;;;15.73;4.10;;;;;;;-143.48;90.17;78783.66;5053089;28;20024;-29
2022/11/24 08:44:16;;;;;;;11.27;4.65;;;;;;;-143.48;89.75;78785.63;5053906;28;20051;-29
2022/11/24 08:46:41;;;;;;;9.35;3.67;;;;;;;-143.48;89.09;78771.75;5053245;28;20025;-29
2022/11/24 08:49:07;;;;;;;15.38;4.35;;;;;;;-143.48;88.87;78769.75;5053190;28;20075;-29
2022/11/24 08:51:32;;;;;;;11.45;3.58;;;;;;;-143.48;88.85;78755.88;5053059;28;20021;-29
2022/11/24 08:53:59;;;;;;;17.35;4.95;;;;;;;-143.48;87.92;78757.88;5053556;28;20032;-33
2022/11/24 08:56:27;;;;;;;8.50;3.90;;;;;;;-143.48;87.65;78738.03;5053351;28;20021;-29
2022/11/24 08:58:53;;;;;;;10.60;4.00;;;;;;;-143.48;86.54;78710.25;5052952;28;20028;-29
2022/11/24 09:01:18;;;;;;;13.13;4.60;;;;;;;-143.48;86.69;78712.25;5052961;28;20082;-29
2022/11/24 09:03:46;;;;;;;13.90;4.32;;;;;;;-143.48;85.50;78696.38;5053212;28;20017;-29
2022/11/24 09:06:12;;;;;;;20.15;5.07;;;;;;;-143.48;85.15;78678.53;5053000;28;20042;-30
2022/11/24 09:08:37;;;;;;;13.23;4.20;;;;;;;-143.48;84.87;78670.59;5053007;28;20070;-29
2022/11/24 09:11:11;;;;;;;10.70;3.67;;;;;;;-143.48;84.73;78698.38;5053369;28;20017;-30
2022/11/24 09:13:37;;;;;;;12.15;3.70;;;;;;;-143.48;84.47;78682.50;5053029;28;20044;-30
2022/11/24 09:16:05;;;;;;;22.10;4.28;;;;;;;-143.48;84.34;78660.69;5053028;28;20017;-30
2022/11/24 09:18:30;;;;;;;13.60;3.33;;;;;;;-143.48;83.64;78670.59;5053279;28;20115;-31
2022/11/24 09:21:25;;;;;;;12.95;3.65;;;;;;;-143.48;84.09;78662.66;5052760;28;20555;-30
2022/11/24 09:23:52;;;;;;;9.65;3.20;;;;;;;-143.48;84.27;78670.59;5040000;28;20041;-29
2022/11/24 09:26:29;;;;;;;8.57;3.00;;;;;;;-143.48;83.71;78662.66;5036658;28;20052;-30
2022/11/24 09:28:56;;;;;;;11.88;2.80;;;;;;;-143.48;83.71;78646.78;5056934;28;20430;-30
2022/11/24 09:31:24;;;;;;;17.00;3.22;;;;;;;-143.48;82.99;78654.72;5057255;28;20358;-30
2022/11/24 09:33:49;;;;;;;13.00;3.35;;;;;;;-143.48;82.43;78658.69;5056885;28;20036;-30
2022/11/24 09:36:15;;;;;;;13.27;3.17;;;;;;;-143.48;82.99;78658.69;5056744;28;20487;-30
2022/11/24 09:38:40;;;;;;;13.80;3.22;;;;;;;-143.48;82.63;78644.81;5057063;28;20033;-30
2022/11/24 09:41:39;;;;;;;16.98;3.17;;;;;;;-143.48;81.86;78611.09;5056936;28;20161;-30
2022/11/24 09:44:49;;;;;;;14.02;3.38;;;;;;;-143.48;79.17;78517.88;5056734;28;20068;-30
2022/11/24 09:47:37;;;;;;;15.20;2.80;;;;;;;-143.48;67.52;78238.25;5033151;28;20048;-30
2022/11/24 09:50:21;;;;;;;13.93;2.90;;;;;;;-143.48;60.25;78032.00;5056792;28;20033;-30
2022/11/24 09:53:16;;;;;;;16.33;3.22;;;;;;;-143.48;55.55;77932.84;5056683;28;20021;-30
2022/11/24 09:55:48;;;;;;;14.77;3.00;;;;;;;-143.48;52.71;77809.91;5056731;28;20371;-29
2022/11/24 09:58:32;;;;;;;13.15;2.83;;;;;;;-143.48;53.79;77857.50;5056349;28;20025;-29
2022/11/24 10:00:58;;;;;;;13.02;3.05;;;;;;;-143.48;54.08;77940.78;5056157;28;20025;-29
2022/11/24 10:03:29;;;;;;;12.85;2.70;;;;;;;-143.48;49.85;77764.31;5056506;28;20029;-30
2022/11/24 10:05:54;;;;;;;16.70;2.83;;;;;;;-143.48;48.33;77708.78;5056779;28;20029;-30
2022/11/24 10:08:43;;;;;;;14.38;3.13;;;;;;;-143.48;50.53;77815.84;5056444;28;20031;-30
2022/11/24 10:11:21;;;;;;;11.55;2.80;;;;;;;-143.48;49.66;77782.16;5056109;28;20075;-30
2022/11/24 10:13:46;;;;;;;14.73;2.83;;;;;;;-143.48;54.14;78059.75;5056664;28;20525;-30
2022/11/24 10:16:36;;;;;;;11.67;3.10;;;;;;;-143.48;49.89;77790.06;5038038;28;20128;-30
2022/11/24 10:19:21;;;;;;;18.02;2.90;;;;;;;-143.48;60.90;78301.72;5056255;28;20260;-30
2022/11/24 10:21:50;;;;;;;13.65;2.60;;;;;;;-143.48;56.88;78131.16;5056381;28;20041;-30
2022/11/24 10:24:39;;;;;;;12.02;2.80;;;;;;;-143.48;56.21;78035.97;5055923;28;20033;-30
2022/11/24 10:27:18;;;;;;;15.95;2.78;;;;;;;-143.48;52.37;77928.88;5056022;28;20312;-30
2022/11/24 10:29:48;;;;;;;15.55;2.92;;;;;;;-143.48;49.02;77754.38;5055575;28;20036;-30
2022/11/24 10:32:25;;;;;;;14.07;2.63;;;;;;;-143.48;47.57;77696.88;5055855;28;20025;-30
2022/11/24 10:34:51;;;;;;;11.02;2.53;;;;;;;-143.48;47.77;77766.28;5055828;28;20527;-30
2022/11/24 10:37:38;;;;;;;13.55;3.20;;;;;;;-143.48;46.79;77679.03;5055385;28;20100;-30
2022/11/24 10:41:02;;;;;;;18.48;3.10;;;;;;;-143.48;50.68;77879.31;5055447;28;20056;-30
2022/11/24 10:43:28;;;;;;;13.98;2.83;;;;;;;-143.48;46.01;77643.34;5026914;28;20510;-30
2022/11/24 10:46:15;;;;;;;12.02;3.00;;;;;;;-143.48;48.35;77829.75;5053512;28;20047;-29
2022/11/24 10:48:48;;;;;;;16.40;3.30;;;;;;;-143.48;55.89;78145.03;5054115;28;20031;-30
2022/11/24 10:51:30;;;;;;;14.77;3.10;;;;;;;-143.48;65.75;78446.47;5053862;28;20020;-30
2022/11/24 10:54:26;;;;;;;14.18;2.65;;;;;;;-143.48;66.11;78404.84;5054070;28;20037;-30
2022/11/24 10:56:53;;;;;;;17.52;2.70;;;;;;;-143.48;70.57;78529.78;5053726;28;20499;-31
2022/11/24 10:59:20;;;;;;;17.13;2.85;;;;;;;-143.48;68.04;78436.56;5054891;28;20100;-31
2022/11/24 11:01:45;;;;;;;14.85;2.95;;;;;;;-143.48;67.31;78416.72;5055393;28;20036;-30
2022/11/24 11:04:18;;;;;;;19.33;2.95;;;;;;;-143.48;63.09;78226.34;5054928;28;20329;-31
2022/11/24 11:06:44;;;;;;;15.75;3.00;;;;;;;-143.48;49.10;77683.00;5054900;28;20472;-30
2022/11/24 11:09:18;;;;;;;15.63;2.80;;;;;;;-143.48;47.37;77683.00;5054131;28;20108;-30
2022/11/24 11:11:45;;;;;;;12.60;2.90;;;;;;;-143.48;46.79;77728.59;5054447;28;20021;-31
2022/11/24 11:14:11;;;;;;;14.10;2.97;;;;;;;-143.48;47.87;77805.94;5054056;28;20033;-30
2022/11/24 11:16:42;;;;;;;15.65;3.30;;;;;;;-143.48;51.20;77986.41;5054482;28;20020;-30
2022/11/24 11:19:35;;;;;;;14.02;3.20;;;;;;;-143.48;58.71;78268.00;5052338;28;20024;-31
2022/11/24 11:22:02;;;;;;;;;;;;;;;-143.48;63.04;78375.09;5054968;28;20511;-30